createdAt,value
2022-08-28T00:00:55.748Z,100067.88
2022-08-28T00:02:59.235Z,100067.03
2022-08-28T00:05:02.025Z,100061.44
2022-08-28T00:07:06.240Z,100057.38
2022-08-28T00:09:08.803Z,100068.63
2022-08-28T00:11:14.214Z,100063.78
2022-08-28T00:13:20.754Z,100069.78
2022-08-28T00:15:30.525Z,100064.94
2022-08-28T00:17:33.535Z,100064.53
2022-08-28T00:19:38.621Z,100066.94
2022-08-28T00:21:41.831Z,100063.31
2022-08-28T00:23:44.448Z,100061.69
2022-08-28T00:25:47.444Z,100062.09
2022-08-28T00:27:55.178Z,100062.03
2022-08-28T00:29:58.141Z,100062.38
2022-08-28T00:32:00.954Z,100063.94
2022-08-28T00:34:03.781Z,100062.72
2022-08-28T00:36:09.629Z,100064.31
2022-08-28T00:38:13.806Z,100066.69
2022-08-28T00:40:28.684Z,100063.47
2022-08-28T00:42:36.581Z,100061.47
2022-08-28T00:44:39.179Z,100050.22
2022-08-28T00:46:45.371Z,100066.22
2022-08-28T00:48:48.997Z,100065.41
2022-08-28T00:51:10.339Z,100065.78
2022-08-28T00:53:12.914Z,100062.16
2022-08-28T00:55:22.553Z,100063.34
2022-08-28T00:57:51.816Z,100057.31
2022-08-28T00:59:54.510Z,100060.91
2022-08-28T01:01:59.089Z,100064.88
2022-08-28T01:04:06.242Z,100061.28
2022-08-28T01:06:09.645Z,100056.88
2022-08-28T01:08:13.000Z,100057.25
2022-08-28T01:10:20.739Z,100052.81
2022-08-28T01:12:29.855Z,100053.63
2022-08-28T01:14:34.394Z,100065.22
2022-08-28T01:16:37.691Z,100057.63
2022-08-28T01:18:42.265Z,100063.22
2022-08-28T01:20:59.345Z,100053.59
2022-08-28T01:23:43.344Z,100066.00
2022-08-28T01:25:46.208Z,100064.38
2022-08-28T01:27:48.814Z,100061.94
2022-08-28T01:29:51.477Z,100067.94
2022-08-28T01:31:54.557Z,100066.75
2022-08-28T01:33:59.378Z,100059.56
2022-08-28T01:36:02.513Z,100067.09
2022-08-28T01:38:05.168Z,100057.56
2022-08-28T01:40:10.120Z,100065.97
2022-08-28T01:42:14.148Z,100057.56
2022-08-28T01:44:18.339Z,100061.59
2022-08-28T01:46:21.135Z,100062.41
2022-08-28T01:48:26.399Z,100066.81
2022-08-28T01:50:29.053Z,100057.19
2022-08-28T01:52:31.716Z,100050.38
2022-08-28T01:54:34.222Z,100055.59
2022-08-28T01:56:40.050Z,100059.56
2022-08-28T01:58:43.123Z,100059.16
2022-08-28T02:00:45.901Z,100057.97
2022-08-28T02:02:51.739Z,100059.94
2022-08-28T02:04:54.326Z,100064.78
2022-08-28T02:06:56.899Z,100063.22
2022-08-28T02:08:59.763Z,100060.84
2022-08-28T02:11:03.184Z,100062.47
2022-08-28T02:13:07.933Z,100068.53
2022-08-28T02:15:12.660Z,100059.34
2022-08-28T02:17:15.258Z,100067.38
2022-08-28T02:19:17.985Z,100065.00
2022-08-28T02:21:21.074Z,100071.44
2022-08-28T02:23:23.704Z,100065.84
2022-08-28T02:25:28.209Z,100067.88
2022-08-28T02:27:31.229Z,100071.56
2022-08-28T02:29:33.821Z,100063.97
2022-08-28T02:31:36.515Z,100053.66
2022-08-28T02:33:41.439Z,100080.16
2022-08-28T02:35:44.211Z,100067.78
2022-08-28T02:37:47.633Z,100074.19
2022-08-28T02:39:51.522Z,100073.41
2022-08-28T02:41:54.300Z,100076.63
2022-08-28T02:43:57.430Z,100078.25
2022-08-28T02:46:00.242Z,100078.28
2022-08-28T02:48:03.166Z,100076.69
2022-08-28T02:50:07.560Z,100072.31
2022-08-28T02:52:10.484Z,100075.13
2022-08-28T02:54:13.138Z,100071.56
2022-08-28T02:56:17.368Z,100069.22
2022-08-28T02:58:19.992Z,100073.25
2022-08-28T03:00:26.101Z,100075.28
2022-08-28T03:02:28.716Z,100072.09
2022-08-28T03:04:31.790Z,100073.78
2022-08-28T03:06:34.574Z,100066.59
2022-08-28T03:08:37.736Z,100075.41
2022-08-28T03:10:40.296Z,100070.63
2022-08-28T03:12:42.850Z,100078.28
2022-08-28T03:14:45.506Z,100078.69
2022-08-28T03:16:48.881Z,100085.94
2022-08-28T03:18:52.001Z,100081.53
2022-08-28T03:20:56.092Z,100080.78
2022-08-28T03:23:17.411Z,100076.81
2022-08-28T03:25:20.212Z,100082.00
2022-08-28T03:27:22.750Z,100080.41
2022-08-28T03:29:25.352Z,100077.28
2022-08-28T03:31:30.403Z,100077.28
2022-08-28T03:33:33.947Z,100080.88
2022-08-28T03:35:37.756Z,100086.91
2022-08-28T03:37:40.628Z,100080.09
2022-08-28T03:39:43.194Z,100088.09
2022-08-28T03:41:45.786Z,100080.13
2022-08-28T03:43:48.434Z,100090.56
2022-08-28T03:46:18.363Z,100075.69
2022-08-28T03:48:21.312Z,100077.31
2022-08-28T03:50:23.891Z,100081.34
2022-08-28T03:52:27.379Z,100086.94
2022-08-28T03:54:31.926Z,100080.09
2022-08-28T03:56:34.570Z,100073.28
2022-08-28T03:58:37.878Z,100072.50
2022-08-28T04:00:40.669Z,100074.91
2022-08-28T04:02:44.850Z,100075.31
2022-08-28T04:04:49.839Z,100074.09
2022-08-28T04:06:52.435Z,100081.31
2022-08-28T04:08:55.621Z,100080.50
2022-08-28T04:11:03.241Z,100074.84
2022-08-28T04:13:05.802Z,100077.19
2022-08-28T04:15:09.168Z,100080.81
2022-08-28T04:17:12.035Z,100075.56
2022-08-28T04:19:14.862Z,100065.09
2022-08-28T04:21:21.276Z,100073.91
2022-08-28T04:23:23.935Z,100078.28
2022-08-28T04:25:27.098Z,100066.19
2022-08-28T04:27:29.722Z,100075.78
2022-08-28T04:29:32.317Z,100076.56
2022-08-28T04:31:35.720Z,100073.03
2022-08-28T04:33:38.785Z,100078.34
2022-08-28T04:35:42.214Z,100073.53
2022-08-28T04:37:44.854Z,100064.31
2022-08-28T04:39:47.443Z,100070.34
2022-08-28T04:41:50.444Z,100072.38
2022-08-28T04:43:53.355Z,100069.16
2022-08-28T04:45:56.835Z,100071.16
2022-08-28T04:48:00.187Z,100066.31
2022-08-28T04:50:15.722Z,100057.88
2022-08-28T04:52:18.339Z,100065.09
2022-08-28T04:54:21.576Z,100064.72
2022-08-28T04:56:24.338Z,100065.09
2022-08-28T04:58:28.067Z,100073.53
2022-08-28T05:00:30.631Z,100069.94
2022-08-28T05:02:33.328Z,100071.16
2022-08-28T05:04:35.963Z,100070.34
2022-08-28T05:06:46.423Z,100068.75
2022-08-28T05:08:49.207Z,100061.06
2022-08-28T05:10:52.449Z,100060.28
2022-08-28T05:12:55.090Z,100058.66
2022-08-28T05:14:57.716Z,100063.06
2022-08-28T05:17:01.321Z,100062.63
2022-08-28T05:19:04.029Z,100073.44
2022-08-28T05:21:14.565Z,100065.75
2022-08-28T05:23:17.500Z,100070.13
2022-08-28T05:25:20.262Z,100067.28
2022-08-28T05:27:24.676Z,100067.63
2022-08-28T05:29:27.531Z,100063.13
2022-08-28T05:31:31.590Z,100063.84
2022-08-28T05:33:34.306Z,100066.59
2022-08-28T05:35:38.859Z,100063.72
2022-08-28T05:37:41.546Z,100064.88
2022-08-28T05:39:44.837Z,100062.41
2022-08-28T05:41:47.595Z,100065.94
2022-08-28T05:43:50.467Z,100069.06
2022-08-28T05:46:00.707Z,100058.59
2022-08-28T05:48:04.236Z,100061.41
2022-08-28T05:50:08.749Z,100059.41
2022-08-28T05:52:11.330Z,100061.81
2022-08-28T05:54:15.774Z,100055.34
2022-08-28T05:56:24.671Z,100059.31
2022-08-28T05:58:29.908Z,100060.91
2022-08-28T06:00:33.101Z,100061.75
2022-08-28T06:02:35.798Z,100057.31
2022-08-28T06:04:40.646Z,100051.28
2022-08-28T06:06:45.173Z,100056.50
2022-08-28T06:08:58.436Z,100054.84
2022-08-28T06:11:02.393Z,100051.91
2022-08-28T06:13:05.670Z,100054.56
2022-08-28T06:15:09.667Z,100057.28
2022-08-28T06:17:12.348Z,100062.00
2022-08-28T06:19:15.678Z,100052.22
2022-08-28T06:21:18.298Z,100051.34
2022-08-28T06:23:24.228Z,100049.63
2022-08-28T06:25:26.968Z,100046.38
2022-08-28T06:27:31.348Z,100045.16
2022-08-28T06:29:34.068Z,100044.69
2022-08-28T06:31:37.514Z,100040.97
2022-08-28T06:33:40.394Z,100042.13
2022-08-28T06:35:52.410Z,100040.84
2022-08-28T06:37:54.988Z,100046.09
2022-08-28T06:39:57.607Z,100040.81
2022-08-28T06:42:00.336Z,100042.00
2022-08-28T06:44:03.995Z,100043.13
2022-08-28T06:46:07.405Z,100043.78
2022-08-28T06:48:12.326Z,100047.72
2022-08-28T06:50:14.994Z,100033.91
2022-08-28T06:52:17.633Z,100039.88
2022-08-28T06:54:23.287Z,100038.34
2022-08-28T06:56:27.136Z,100039.50
2022-08-28T06:58:30.528Z,100038.63
2022-08-28T07:00:35.690Z,100039.63
2022-08-28T07:02:38.369Z,100031.44
2022-08-28T07:04:41.263Z,100034.16
2022-08-28T07:06:54.771Z,100035.63
2022-08-28T07:08:57.765Z,100033.47
2022-08-28T07:11:09.422Z,100026.50
2022-08-28T07:13:12.087Z,100032.44
2022-08-28T07:15:14.710Z,100021.06
2022-08-28T07:17:17.625Z,100024.47
2022-08-28T07:19:20.331Z,100028.41
2022-08-28T07:21:22.999Z,100020.94
2022-08-28T07:23:26.230Z,100036.09
2022-08-28T07:25:29.492Z,100031.16
2022-08-28T07:27:32.338Z,100026.56
2022-08-28T07:29:35.604Z,100030.53
2022-08-28T07:31:41.169Z,100022.69
2022-08-28T07:33:44.178Z,100020.16
2022-08-28T07:35:47.302Z,100022.47
2022-08-28T07:37:49.990Z,100020.72
2022-08-28T07:39:52.760Z,100012.06
2022-08-28T07:41:55.506Z,100024.06
2022-08-28T07:44:18.011Z,100027.28
2022-08-28T07:46:20.866Z,100020.88
2022-08-28T07:48:23.604Z,100020.38
2022-08-28T07:50:26.232Z,100025.00
2022-08-28T07:52:29.631Z,100011.84
2022-08-28T07:54:32.398Z,100015.22
2022-08-28T07:56:40.789Z,100022.75
2022-08-28T07:58:43.685Z,100010.78
2022-08-28T08:00:46.553Z,100010.16
2022-08-28T08:02:49.238Z,100003.88
2022-08-28T08:04:52.481Z,100013.53
2022-08-28T08:06:58.063Z,100011.75
2022-08-28T08:09:01.073Z,100004.69
2022-08-28T08:11:18.317Z,100004.69
2022-08-28T08:13:20.884Z,100007.69
2022-08-28T08:15:23.584Z,100000.06
2022-08-28T08:17:45.349Z,100008.75
2022-08-28T08:19:48.746Z,100002.41
2022-08-28T08:21:54.861Z,100000.19
2022-08-28T08:23:59.366Z,99996.00
2022-08-28T08:26:05.552Z,100007.94
2022-08-28T08:28:08.709Z,99999.78
2022-08-28T08:30:12.818Z,100001.69
2022-08-28T08:32:15.523Z,100005.66
2022-08-28T08:34:18.204Z,99994.28
2022-08-28T08:36:22.994Z,99997.69
2022-08-28T08:38:25.666Z,100001.44
2022-08-28T08:40:28.588Z,99993.94
2022-08-28T08:42:34.139Z,99998.41
2022-08-28T08:44:41.774Z,99998.06
2022-08-28T08:47:10.667Z,100000.13
2022-08-28T08:49:20.252Z,99986.53
2022-08-28T08:51:41.069Z,99990.75
2022-08-28T08:54:05.522Z,99986.22
2022-08-28T08:56:12.422Z,99992.34
2022-08-28T08:58:36.977Z,99988.72
2022-08-28T09:01:16.992Z,99990.25
2022-08-28T09:03:43.519Z,99992.19
2022-08-28T09:05:55.529Z,99990.25
2022-08-28T09:08:02.838Z,99984.91
2022-08-28T09:10:15.825Z,99985.03
2022-08-28T09:12:23.380Z,99985.47
2022-08-28T09:14:37.882Z,99982.19
2022-08-28T09:16:44.047Z,99982.13
2022-08-28T09:18:48.930Z,99982.25
2022-08-28T09:20:54.825Z,99976.88
2022-08-28T09:22:57.507Z,99981.06
2022-08-28T09:25:01.060Z,99977.41
2022-08-28T09:27:13.742Z,99982.41
2022-08-28T09:29:19.081Z,99983.28
2022-08-28T09:31:38.224Z,99982.38
2022-08-28T09:33:46.934Z,99982.38
2022-08-28T09:35:49.977Z,99981.13
2022-08-28T09:37:52.897Z,99978.47
2022-08-28T09:40:21.869Z,99975.78
2022-08-28T09:42:43.143Z,99966.31
2022-08-28T09:45:09.410Z,99975.53
2022-08-28T09:47:34.863Z,99971.34
2022-08-28T09:49:37.544Z,99974.63
2022-08-28T09:51:42.239Z,99970.19
2022-08-28T09:53:54.685Z,99974.56
2022-08-28T09:56:13.459Z,99971.75
2022-08-28T09:58:16.135Z,99973.88
2022-08-28T10:00:18.859Z,99965.00
2022-08-28T10:02:31.882Z,99970.47
2022-08-28T10:04:46.433Z,99962.53
2022-08-28T10:07:07.609Z,99964.47
2022-08-28T10:09:33.384Z,99962.88
2022-08-28T10:11:44.824Z,99962.53
2022-08-28T10:14:03.853Z,99967.34
2022-08-28T10:16:26.337Z,99963.47
2022-08-28T10:18:29.029Z,99957.44
2022-08-28T10:20:54.946Z,99960.28
2022-08-28T10:23:06.288Z,99959.69
2022-08-28T10:25:30.471Z,99959.88
2022-08-28T10:27:48.666Z,99954.53
2022-08-28T10:30:21.846Z,99952.03
2022-08-28T10:33:00.153Z,99952.22
2022-08-28T10:35:23.118Z,99946.53
2022-08-28T10:37:45.286Z,99947.09
2022-08-28T10:39:51.843Z,99942.38
2022-08-28T10:42:03.297Z,99945.63
2022-08-28T10:44:07.862Z,99944.28
2022-08-28T10:46:15.297Z,99943.34
2022-08-28T10:48:42.511Z,99941.03
2022-08-28T10:50:53.574Z,99937.00
2022-08-28T10:53:05.702Z,99935.19
2022-08-28T10:55:17.306Z,99933.19
2022-08-28T10:57:25.003Z,99938.94
2022-08-28T10:59:30.623Z,99939.19
2022-08-28T11:01:40.302Z,99934.84
2022-08-28T11:03:49.841Z,99928.88
2022-08-28T11:05:57.913Z,99928.91
2022-08-28T11:08:08.892Z,99929.56
2022-08-28T11:10:26.889Z,99927.81
2022-08-28T11:12:37.655Z,99929.81
2022-08-28T11:14:48.381Z,99926.06
2022-08-28T11:16:53.170Z,99924.97
2022-08-28T11:19:14.601Z,99924.41
2022-08-28T11:21:50.246Z,99911.00
2022-08-28T11:24:05.636Z,99923.97
2022-08-28T11:26:13.179Z,99920.63
2022-08-28T11:28:45.316Z,99917.31
2022-08-28T11:30:59.479Z,99921.44
2022-08-28T11:33:45.883Z,99905.94
2022-08-28T11:35:51.580Z,99902.00
2022-08-28T11:37:55.150Z,99902.00
2022-08-28T11:40:40.850Z,99903.13
2022-08-28T11:42:48.697Z,99895.72
2022-08-28T11:44:51.778Z,99893.56
2022-08-28T11:46:57.686Z,99891.72
2022-08-28T11:49:28.144Z,99890.88
2022-08-28T11:51:37.566Z,99886.03
2022-08-28T11:53:50.150Z,99888.78
2022-08-28T11:56:31.328Z,99888.88
2022-08-28T11:59:07.971Z,99892.34
2022-08-28T12:01:14.600Z,99886.09
2022-08-28T12:03:31.702Z,99885.25
2022-08-28T12:05:45.168Z,99887.91
2022-08-28T12:07:49.974Z,99875.94
2022-08-28T12:09:53.367Z,99882.22
2022-08-28T12:11:58.709Z,99874.03
2022-08-28T12:14:01.497Z,99867.84
2022-08-28T12:16:07.251Z,99868.59
2022-08-28T12:18:12.898Z,99870.00
2022-08-28T12:20:28.477Z,99868.69
2022-08-28T12:22:50.500Z,99866.28
2022-08-28T12:24:59.591Z,99862.25
2022-08-28T12:27:03.787Z,99863.19
2022-08-28T12:29:32.157Z,99853.22
2022-08-28T12:31:59.230Z,99854.22
2022-08-28T12:34:10.776Z,99864.22
2022-08-28T12:36:17.382Z,99856.88
2022-08-28T12:38:22.202Z,99850.47
2022-08-28T12:40:50.661Z,99855.69
2022-08-28T12:42:58.478Z,99856.19
2022-08-28T12:45:05.572Z,99849.19
2022-08-28T12:47:08.273Z,99859.53
2022-08-28T12:49:35.770Z,99854.19
2022-08-28T12:51:38.649Z,99852.56
2022-08-28T12:53:50.926Z,99845.06
2022-08-28T12:55:53.873Z,99844.78
2022-08-28T12:57:56.509Z,99845.47
2022-08-28T13:00:09.373Z,99850.94
2022-08-28T13:02:31.327Z,99853.50
2022-08-28T13:04:44.439Z,99850.16
2022-08-28T13:06:47.098Z,99840.97
2022-08-28T13:08:50.030Z,99839.44
2022-08-28T13:10:53.082Z,99840.72
2022-08-28T13:13:06.646Z,99841.25
2022-08-28T13:15:10.324Z,99841.47
2022-08-28T13:17:15.348Z,99840.19
2022-08-28T13:19:27.169Z,99846.41
2022-08-28T13:21:34.794Z,99839.09
2022-08-28T13:23:37.868Z,99846.00
2022-08-28T13:25:40.571Z,99840.41
2022-08-28T13:27:43.211Z,99838.50
2022-08-28T13:30:20.992Z,99835.47
2022-08-28T13:32:24.571Z,99834.19
2022-08-28T13:34:30.124Z,99835.34
2022-08-28T13:36:41.926Z,99834.19
2022-08-28T13:38:45.139Z,99833.00
2022-08-28T13:41:04.258Z,99830.53
2022-08-28T13:43:11.181Z,99825.50
2022-08-28T13:45:14.652Z,99822.72
2022-08-28T13:47:17.620Z,99826.56
2022-08-28T13:49:20.224Z,99821.72
2022-08-28T13:51:25.343Z,99830.44
2022-08-28T13:53:28.012Z,99823.91
2022-08-28T13:55:31.208Z,99820.75
2022-08-28T13:57:33.987Z,99823.13
2022-08-28T13:59:38.969Z,99817.94
2022-08-28T14:02:00.184Z,99821.28
2022-08-28T14:04:03.200Z,99821.97
2022-08-28T14:06:11.901Z,99825.22
2022-08-28T14:08:16.223Z,99813.94
2022-08-28T14:10:19.162Z,99811.34
2022-08-28T14:12:21.820Z,99812.53
2022-08-28T14:14:32.445Z,99812.66
2022-08-28T14:16:39.715Z,99810.84
2022-08-28T14:18:42.544Z,99808.13
2022-08-28T14:20:45.160Z,99805.53
2022-08-28T14:22:47.798Z,99814.31
2022-08-28T14:24:50.364Z,99807.97
2022-08-28T14:26:53.370Z,99812.09
2022-08-28T14:28:59.168Z,99799.72
2022-08-28T14:31:06.036Z,99805.19
2022-08-28T14:33:09.032Z,99803.44
2022-08-28T14:35:11.843Z,99793.53
2022-08-28T14:37:14.872Z,99797.91
2022-08-28T14:39:18.942Z,99796.28
2022-08-28T14:41:25.390Z,99792.06
2022-08-28T14:43:28.157Z,99797.66
2022-08-28T14:45:31.000Z,99790.25
2022-08-28T14:47:34.588Z,99792.38
2022-08-28T14:49:37.425Z,99796.63
2022-08-28T14:51:41.765Z,99794.91
2022-08-28T14:53:45.231Z,99795.59
2022-08-28T14:55:50.132Z,99798.69
2022-08-28T14:57:52.687Z,99790.84
2022-08-28T14:59:55.225Z,99789.97
2022-08-28T15:02:00.311Z,99787.72
2022-08-28T15:04:07.849Z,99796.00
2022-08-28T15:06:11.754Z,99794.63
2022-08-28T15:08:17.319Z,99790.66
2022-08-28T15:10:20.130Z,99790.56
2022-08-28T15:12:22.989Z,99787.81
2022-08-28T15:14:25.969Z,99787.34
2022-08-28T15:16:31.922Z,99782.28
2022-08-28T15:18:34.771Z,99788.94
2022-08-28T15:20:46.794Z,99781.78
2022-08-28T15:22:49.523Z,99782.34
2022-08-28T15:24:53.445Z,99780.16
2022-08-28T15:26:59.832Z,99778.44
2022-08-28T15:29:03.795Z,99786.94
2022-08-28T15:31:06.616Z,99783.13
2022-08-28T15:33:09.438Z,99781.72
2022-08-28T15:35:12.370Z,99781.56
2022-08-28T15:37:15.120Z,99777.06
2022-08-28T15:39:36.490Z,99785.53
2022-08-28T15:41:39.048Z,99769.31
2022-08-28T15:43:43.082Z,99780.56
2022-08-28T15:45:51.102Z,99774.91
2022-08-28T15:47:54.309Z,99769.50
2022-08-28T15:49:57.424Z,99779.41
2022-08-28T15:52:00.091Z,99776.63
2022-08-28T15:54:02.730Z,99773.91
2022-08-28T15:56:05.468Z,99779.19
2022-08-28T15:58:14.363Z,99777.69
2022-08-28T16:00:17.439Z,99783.88
2022-08-28T16:02:23.469Z,99787.25
2022-08-28T16:04:26.143Z,99781.59
2022-08-28T16:06:29.464Z,99782.06
2022-08-28T16:08:32.086Z,99782.06
2022-08-28T16:10:35.256Z,99780.09
2022-08-28T16:12:41.175Z,99786.69
2022-08-28T16:14:44.218Z,99793.22
2022-08-28T16:16:50.859Z,99776.19
2022-08-28T16:18:53.685Z,99779.75
2022-08-28T16:20:56.319Z,99785.03
2022-08-28T16:23:00.498Z,99777.50
2022-08-28T16:25:04.406Z,99775.03
2022-08-28T16:27:10.678Z,99782.72
2022-08-28T16:29:18.333Z,99783.16
2022-08-28T16:31:21.321Z,99779.59
2022-08-28T16:33:24.180Z,99767.59
2022-08-28T16:35:26.839Z,99780.84
2022-08-28T16:37:39.823Z,99771.13
2022-08-28T16:39:42.828Z,99773.03
2022-08-28T16:41:50.043Z,99778.78
2022-08-28T16:43:53.933Z,99777.13
2022-08-28T16:45:56.924Z,99771.97
2022-08-28T16:48:00.455Z,99758.47
2022-08-28T16:50:07.834Z,99768.19
2022-08-28T16:52:10.416Z,99763.06
2022-08-28T16:54:13.515Z,99758.56
2022-08-28T16:56:18.416Z,99767.81
2022-08-28T16:58:21.220Z,99766.25
2022-08-28T17:00:25.081Z,99767.03
2022-08-28T17:02:28.356Z,99767.78
2022-08-28T17:04:30.983Z,99775.56
2022-08-28T17:06:33.778Z,99766.25
2022-08-28T17:08:36.402Z,99766.16
2022-08-28T17:10:39.059Z,99757.41
2022-08-28T17:12:42.118Z,99766.63
2022-08-28T17:14:45.086Z,99764.59
2022-08-28T17:16:48.194Z,99767.41
2022-08-28T17:18:52.657Z,99764.13
2022-08-28T17:21:13.989Z,99765.88
2022-08-28T17:23:16.450Z,99762.75
2022-08-28T17:25:18.944Z,99755.22
2022-08-28T17:27:22.887Z,99761.66
2022-08-28T17:29:26.448Z,99762.81
2022-08-28T17:31:29.157Z,99757.53
2022-08-28T17:33:31.846Z,99755.50
2022-08-28T17:35:41.804Z,99761.06
2022-08-28T17:37:45.871Z,99752.97
2022-08-28T17:39:48.567Z,99756.63
2022-08-28T17:41:52.092Z,99754.22
2022-08-28T17:43:54.702Z,99751.03
2022-08-28T17:45:57.304Z,99755.09
2022-08-28T17:48:00.102Z,99754.28
2022-08-28T17:50:03.431Z,99750.66
2022-08-28T17:52:06.575Z,99748.56
2022-08-28T17:54:09.223Z,99741.69
2022-08-28T17:56:12.294Z,99754.50
2022-08-28T17:58:15.037Z,99738.81
2022-08-28T18:00:18.509Z,99747.56
2022-08-28T18:02:21.208Z,99745.19
2022-08-28T18:04:24.732Z,99745.09
2022-08-28T18:06:27.561Z,99743.53
2022-08-28T18:08:30.236Z,99747.56
2022-08-28T18:10:33.983Z,99750.75
2022-08-28T18:12:36.663Z,99743.16
2022-08-28T18:14:39.801Z,99739.97
2022-08-28T18:16:42.801Z,99749.22
2022-08-28T18:18:45.621Z,99750.97
2022-08-28T18:20:48.290Z,99754.13
2022-08-28T18:22:51.247Z,99752.56
2022-08-28T18:24:53.955Z,99744.50
2022-08-28T18:26:58.408Z,99748.16
2022-08-28T18:29:01.076Z,99749.38
2022-08-28T18:31:06.210Z,99754.28
2022-08-28T18:33:09.581Z,99761.44
2022-08-28T18:35:12.161Z,99755.38
2022-08-28T18:37:15.139Z,99748.56
2022-08-28T18:39:22.649Z,99746.97
2022-08-28T18:41:43.223Z,99742.66
2022-08-28T18:43:48.174Z,99743.50
2022-08-28T18:45:51.546Z,99749.59
2022-08-28T18:47:54.250Z,99744.78
2022-08-28T18:49:56.902Z,99744.03
2022-08-28T18:51:59.600Z,99754.16
2022-08-28T18:54:03.092Z,99745.78
2022-08-28T18:56:06.196Z,99751.47
2022-08-28T18:58:11.210Z,99747.13
2022-08-28T19:00:18.238Z,99746.78
2022-08-28T19:02:21.367Z,99746.78
2022-08-28T19:04:24.064Z,99739.59
2022-08-28T19:06:26.678Z,99745.22
2022-08-28T19:08:29.318Z,99744.84
2022-08-28T19:10:34.766Z,99742.03
2022-08-28T19:12:39.198Z,99747.31
2022-08-28T19:14:42.405Z,99740.13
2022-08-28T19:16:45.214Z,99741.00
2022-08-28T19:18:48.078Z,99742.63
2022-08-28T19:21:05.138Z,99729.03
2022-08-28T19:23:07.816Z,99731.13
2022-08-28T19:25:27.649Z,99733.56
2022-08-28T19:27:31.409Z,99732.03
2022-08-28T19:29:34.173Z,99720.88
2022-08-28T19:31:37.402Z,99734.91
2022-08-28T19:33:40.154Z,99729.25
2022-08-28T19:35:43.345Z,99725.66
2022-08-28T19:38:26.452Z,99726.06
2022-08-28T19:41:06.928Z,99725.41
2022-08-28T19:43:09.878Z,99718.53
2022-08-28T19:45:19.843Z,99723.44
2022-08-28T19:47:23.047Z,99721.13
2022-08-28T19:49:25.675Z,99718.72
2022-08-28T19:51:29.882Z,99725.63
2022-08-28T19:53:32.689Z,99729.31
2022-08-28T19:55:35.614Z,99722.94
2022-08-28T19:57:38.189Z,99721.44
2022-08-28T19:59:40.894Z,99721.13
2022-08-28T20:01:47.885Z,99719.16
2022-08-28T20:03:50.895Z,99719.63
2022-08-28T20:05:53.853Z,99715.28
2022-08-28T20:07:56.512Z,99723.31
2022-08-28T20:10:02.331Z,99716.50
2022-08-28T20:12:06.151Z,99712.13
2022-08-28T20:14:08.854Z,99714.97
2022-08-28T20:16:11.538Z,99718.59
2022-08-28T20:18:15.248Z,99713.81
2022-08-28T20:20:25.593Z,99708.28
2022-08-28T20:22:32.136Z,99712.34
2022-08-28T20:24:35.177Z,99716.78
2022-08-28T20:26:38.038Z,99711.59
2022-08-28T20:28:41.576Z,99714.81
2022-08-28T20:30:44.233Z,99716.06
2022-08-28T20:32:46.883Z,99708.06
2022-08-28T20:34:49.881Z,99705.31
2022-08-28T20:36:52.788Z,99720.28
2022-08-28T20:38:55.413Z,99717.94
2022-08-28T20:41:24.492Z,99708.38
2022-08-28T20:43:27.557Z,99718.53
2022-08-28T20:45:30.306Z,99714.63
2022-08-28T20:47:33.041Z,99714.34
2022-08-28T20:49:38.982Z,99715.63
2022-08-28T20:51:53.837Z,99717.63
2022-08-28T20:53:56.444Z,99716.06
2022-08-28T20:56:01.369Z,99714.84
2022-08-28T20:58:04.114Z,99718.84
2022-08-28T21:00:09.337Z,99717.59
2022-08-28T21:02:16.785Z,99719.22
2022-08-28T21:04:19.923Z,99707.63
2022-08-28T21:06:22.868Z,99716.06
2022-08-28T21:08:26.035Z,99721.28
2022-08-28T21:10:30.418Z,99717.28
2022-08-28T21:12:33.151Z,99717.31
2022-08-28T21:14:37.281Z,99720.53
2022-08-28T21:16:40.855Z,99727.38
2022-08-28T21:19:05.136Z,99716.53
2022-08-28T21:21:07.966Z,99717.38
2022-08-28T21:23:11.820Z,99721.41
2022-08-28T21:25:16.128Z,99715.34
2022-08-28T21:27:18.832Z,99720.97
2022-08-28T21:29:22.843Z,99712.59
2022-08-28T21:31:25.779Z,99726.22
2022-08-28T21:33:28.477Z,99710.16
2022-08-28T21:35:31.921Z,99723.38
2022-08-28T21:37:35.084Z,99722.53
2022-08-28T21:39:37.787Z,99719.72
2022-08-28T21:41:41.231Z,99720.16
2022-08-28T21:43:46.000Z,99717.34
2022-08-28T21:46:00.919Z,99716.97
2022-08-28T21:48:04.098Z,99724.56
2022-08-28T21:50:07.307Z,99719.78
2022-08-28T21:52:09.999Z,99725.00
2022-08-28T21:54:12.846Z,99718.22
2022-08-28T21:56:33.473Z,99719.47
2022-08-28T21:58:38.781Z,99721.09
2022-08-28T22:00:41.429Z,99721.09
2022-08-28T22:02:44.684Z,99726.28
2022-08-28T22:04:48.600Z,99721.88
2022-08-28T22:06:51.220Z,99725.09
2022-08-28T22:08:54.868Z,99727.88
2022-08-28T22:10:58.517Z,99719.84
2022-08-28T22:13:01.223Z,99723.84
2022-08-28T22:15:04.438Z,99716.97
2022-08-28T22:17:11.273Z,99723.00
2022-08-28T22:19:14.438Z,99723.00
2022-08-28T22:21:39.119Z,99728.28
2022-08-28T22:23:41.931Z,99731.44
2022-08-28T22:25:44.924Z,99724.25
2022-08-28T22:27:47.673Z,99730.25
2022-08-28T22:29:50.533Z,99723.84
2022-08-28T22:31:53.350Z,99723.47
2022-08-28T22:33:55.997Z,99723.06
2022-08-28T22:35:59.074Z,99718.69
2022-08-28T22:38:01.827Z,99720.69
2022-08-28T22:40:09.460Z,99723.91
2022-08-28T22:42:16.029Z,99716.31
2022-08-28T22:44:18.739Z,99717.50
2022-08-28T22:46:21.547Z,99716.72
2022-08-28T22:48:24.178Z,99726.34
2022-08-28T22:50:26.787Z,99735.16
2022-08-28T22:52:29.627Z,99718.69
2022-08-28T22:54:33.687Z,99728.69
2022-08-28T22:56:36.633Z,99721.91
2022-08-28T22:58:40.075Z,99722.28
2022-08-28T23:00:42.778Z,99727.13
2022-08-28T23:02:45.758Z,99725.94
2022-08-28T23:04:51.304Z,99725.94
2022-08-28T23:06:55.040Z,99721.56
2022-08-28T23:08:57.766Z,99717.56
2022-08-28T23:11:01.019Z,99721.56
2022-08-28T23:13:03.708Z,99717.16
2022-08-28T23:15:10.452Z,99711.16
2022-08-28T23:17:13.310Z,99711.56
2022-08-28T23:19:16.614Z,99714.81
2022-08-28T23:21:21.543Z,99714.81
2022-08-28T23:23:25.546Z,99716.81
2022-08-28T23:25:28.355Z,99718.81
2022-08-28T23:27:38.204Z,99707.63
2022-08-28T23:29:40.907Z,99707.19
2022-08-28T23:31:43.785Z,99714.41
2022-08-28T23:33:46.585Z,99713.59
2022-08-28T23:35:50.548Z,99720.78
2022-08-28T23:37:53.282Z,99716.78
2022-08-28T23:39:55.955Z,99716.78
2022-08-28T23:41:58.671Z,99711.50
2022-08-28T23:44:05.253Z,99717.13
2022-08-28T23:46:16.480Z,99720.31
2022-08-28T23:48:19.182Z,99713.91
2022-08-28T23:50:22.873Z,99717.13
2022-08-28T23:52:25.738Z,99724.75
2022-08-28T23:54:28.447Z,99721.56
2022-08-28T23:56:31.235Z,99726.38
2022-08-28T23:58:34.534Z,99723.56
